createdAt,value
2022-10-23T00:01:28.648Z,12.85
2022-10-23T00:03:59.115Z,10.35
2022-10-23T00:06:25.808Z,15.75
2022-10-23T00:08:52.172Z,14.88
2022-10-23T00:11:21.542Z,13.05
2022-10-23T00:13:48.442Z,15.45
2022-10-23T00:16:15.341Z,13.85
2022-10-23T00:18:42.006Z,12.13
2022-10-23T00:21:09.705Z,9.10
2022-10-23T00:23:35.991Z,13.48
2022-10-23T00:26:02.588Z,11.85
2022-10-23T00:28:28.936Z,16.80
2022-10-23T00:30:55.270Z,18.67
2022-10-23T00:33:21.624Z,15.43
2022-10-23T00:35:48.056Z,10.60
2022-10-23T00:38:14.318Z,20.70
2022-10-23T00:40:42.218Z,13.15
2022-10-23T00:43:16.533Z,20.20
2022-10-23T00:45:42.834Z,12.70
2022-10-23T00:48:09.809Z,11.27
2022-10-23T00:50:36.161Z,14.95
2022-10-23T00:53:03.814Z,16.73
2022-10-23T00:55:30.715Z,11.40
2022-10-23T00:57:57.105Z,10.82
2022-10-23T01:00:42.183Z,16.75
2022-10-23T01:03:08.563Z,11.43
2022-10-23T01:05:39.778Z,11.13
2022-10-23T01:08:12.700Z,16.70
2022-10-23T01:11:08.648Z,13.60
2022-10-23T01:13:49.487Z,11.77
2022-10-23T01:16:18.485Z,17.65
2022-10-23T01:18:47.680Z,13.82
2022-10-23T01:21:20.589Z,19.60
2022-10-23T01:23:56.397Z,21.77
2022-10-23T01:26:25.694Z,13.23
2022-10-23T01:29:07.769Z,17.40
2022-10-23T01:31:39.886Z,14.93
2022-10-23T01:34:09.686Z,14.00
2022-10-23T01:36:41.425Z,17.90
2022-10-23T01:39:10.748Z,10.05
2022-10-23T01:41:57.837Z,13.98
2022-10-23T01:44:36.010Z,12.48
2022-10-23T01:47:03.567Z,22.40
2022-10-23T01:49:33.636Z,15.80
2022-10-23T01:52:01.698Z,12.30
2022-10-23T01:54:31.049Z,14.65
2022-10-23T01:56:58.570Z,19.00
2022-10-23T01:59:31.857Z,13.55
2022-10-23T02:01:58.768Z,16.90
2022-10-23T02:04:33.898Z,11.40
2022-10-23T02:07:00.275Z,20.75
2022-10-23T02:09:26.777Z,18.67
2022-10-23T02:11:57.152Z,13.15
2022-10-23T02:14:32.771Z,15.35
2022-10-23T02:17:04.492Z,17.88
2022-10-23T02:19:53.576Z,16.27
2022-10-23T02:22:24.903Z,9.57
2022-10-23T02:24:57.168Z,12.00
2022-10-23T02:27:30.274Z,15.38
2022-10-23T02:29:59.913Z,15.75
2022-10-23T02:32:27.137Z,15.23
2022-10-23T02:34:53.916Z,14.27
2022-10-23T02:39:48.169Z,7.05
2022-10-23T02:42:17.219Z,10.05
2022-10-23T02:44:47.064Z,11.20
2022-10-23T02:47:43.129Z,13.30
2022-10-23T02:50:14.976Z,12.40
2022-10-23T02:55:13.376Z,12.23
2022-10-23T02:58:14.409Z,8.75
2022-10-23T03:00:46.125Z,12.10
2022-10-23T03:03:27.697Z,8.30
2022-10-23T03:05:54.209Z,9.45
2022-10-23T03:08:20.564Z,10.85
2022-10-23T03:10:49.902Z,12.55
2022-10-23T03:13:17.909Z,13.13
2022-10-23T03:15:44.606Z,8.60
2022-10-23T03:18:13.898Z,9.93
2022-10-23T03:20:45.007Z,17.67
2022-10-23T03:23:12.752Z,15.18
2022-10-23T03:25:39.056Z,13.60
2022-10-23T03:28:06.034Z,11.77
2022-10-23T03:30:34.568Z,8.82
2022-10-23T03:33:00.874Z,13.07
2022-10-23T03:35:27.185Z,9.95
2022-10-23T03:37:53.496Z,11.88
2022-10-23T03:40:20.318Z,12.13
2022-10-23T03:42:46.624Z,11.88
2022-10-23T03:45:17.878Z,11.32
2022-10-23T03:47:45.132Z,17.40
2022-10-23T03:50:11.932Z,19.63
2022-10-23T03:52:38.389Z,11.35
2022-10-23T03:55:05.389Z,12.57
2022-10-23T03:57:31.808Z,11.40
2022-10-23T03:59:58.120Z,13.82
2022-10-23T04:02:29.354Z,15.27
2022-10-23T04:04:55.689Z,19.13
2022-10-23T04:07:22.057Z,14.50
2022-10-23T04:09:48.657Z,16.77
2022-10-23T04:12:16.260Z,16.95
2022-10-23T04:14:42.591Z,12.98
2022-10-23T04:17:09.210Z,16.23
2022-10-23T04:19:35.468Z,14.82
2022-10-23T04:22:01.763Z,11.45
2022-10-23T04:24:28.075Z,11.15
2022-10-23T04:26:54.571Z,17.88
2022-10-23T04:29:23.721Z,11.70
2022-10-23T04:31:51.245Z,12.45
2022-10-23T04:34:18.464Z,13.10
2022-10-23T04:36:44.769Z,13.43
2022-10-23T04:39:11.061Z,17.95
2022-10-23T04:41:38.848Z,19.15
2022-10-23T04:44:05.437Z,13.98
2022-10-23T04:46:36.031Z,16.77
2022-10-23T04:49:04.024Z,18.88
2022-10-23T04:51:49.169Z,15.07
2022-10-23T04:54:44.626Z,19.08
2022-10-23T04:57:23.014Z,11.85
2022-10-23T05:00:05.968Z,12.95
2022-10-23T05:02:40.351Z,14.13
2022-10-23T05:05:07.417Z,15.15
2022-10-23T05:07:34.310Z,17.05
2022-10-23T05:10:19.033Z,13.60
2022-10-23T05:12:55.053Z,11.93
2022-10-23T05:15:21.429Z,11.38
2022-10-23T05:17:50.119Z,7.05
2022-10-23T05:20:21.192Z,15.75
2022-10-23T05:22:50.185Z,11.15
2022-10-23T05:25:19.909Z,13.75
2022-10-23T05:27:51.708Z,9.95
2022-10-23T05:30:18.152Z,13.93
2022-10-23T05:32:45.114Z,11.27
2022-10-23T05:35:14.514Z,8.45
2022-10-23T05:37:42.584Z,8.50
2022-10-23T05:40:17.541Z,9.73
2022-10-23T05:42:45.082Z,13.73
2022-10-23T05:45:15.094Z,14.00
2022-10-23T05:48:11.092Z,7.63
2022-10-23T05:51:08.887Z,15.82
2022-10-23T05:53:43.363Z,14.07
2022-10-23T05:56:30.036Z,13.15
2022-10-23T05:59:20.407Z,26.05
2022-10-23T06:01:59.057Z,40.55
2022-10-23T06:04:35.761Z,37.40
2022-10-23T06:07:31.220Z,29.75
2022-10-23T06:10:03.260Z,26.38
2022-10-23T06:12:31.326Z,18.85
2022-10-23T06:14:58.556Z,19.60
2022-10-23T06:17:36.396Z,14.25
2022-10-23T06:20:03.153Z,15.05
2022-10-23T06:22:35.197Z,12.88
2022-10-23T06:25:15.265Z,14.27
2022-10-23T06:27:43.036Z,12.30
2022-10-23T06:30:11.432Z,14.90
2022-10-23T06:32:37.808Z,17.00
2022-10-23T06:35:10.973Z,11.80
2022-10-23T06:37:37.883Z,15.88
2022-10-23T06:40:10.948Z,8.25
2022-10-23T06:42:55.491Z,11.45
2022-10-23T06:45:35.897Z,11.35
2022-10-23T06:48:14.072Z,11.52
2022-10-23T06:51:06.691Z,11.63
2022-10-23T06:53:39.187Z,11.80
2022-10-23T06:56:15.530Z,11.80
2022-10-23T06:58:41.998Z,8.48
2022-10-23T07:01:16.240Z,9.88
2022-10-23T07:03:44.123Z,8.73
2022-10-23T07:06:11.465Z,7.72
2022-10-23T07:08:38.279Z,8.55
2022-10-23T07:11:16.444Z,8.23
2022-10-23T07:13:46.497Z,13.20
2022-10-23T07:16:19.013Z,12.07
2022-10-23T07:18:45.776Z,7.32
2022-10-23T07:21:34.749Z,7.03
2022-10-23T07:24:23.730Z,10.27
2022-10-23T07:29:23.884Z,7.30
2022-10-23T07:31:50.922Z,7.82
2022-10-23T07:34:36.803Z,8.13
2022-10-23T07:37:38.281Z,6.60
2022-10-23T07:40:05.423Z,11.60
2022-10-23T07:42:36.001Z,10.07
2022-10-23T07:45:04.289Z,11.57
2022-10-23T07:47:32.477Z,8.55
2022-10-23T07:49:59.940Z,9.65
2022-10-23T07:52:26.297Z,6.53
2022-10-23T07:55:12.659Z,7.78
2022-10-23T07:57:45.868Z,8.38
2022-10-23T08:00:27.228Z,7.18
2022-10-23T08:03:02.310Z,9.35
2022-10-23T08:05:28.710Z,12.60
2022-10-23T08:07:59.280Z,9.00
2022-10-23T08:10:26.081Z,11.07
2022-10-23T08:12:52.454Z,3.83
2022-10-23T08:15:23.725Z,7.63
2022-10-23T08:17:54.933Z,9.20
2022-10-23T08:20:44.953Z,4.18
2022-10-23T08:23:16.818Z,4.22
2022-10-23T08:25:43.803Z,9.93
2022-10-23T08:28:10.545Z,7.60
2022-10-23T08:30:49.022Z,5.15
2022-10-23T08:33:15.365Z,6.97
2022-10-23T08:35:42.611Z,5.38
2022-10-23T08:38:10.156Z,5.53
2022-10-23T08:40:45.332Z,4.90
2022-10-23T08:43:41.472Z,3.70
2022-10-23T08:46:23.801Z,5.88
2022-10-23T08:49:18.084Z,4.72
2022-10-23T08:51:51.656Z,7.90
2022-10-23T08:54:25.016Z,5.15
2022-10-23T08:56:54.299Z,6.00
2022-10-23T08:59:39.436Z,5.32
2022-10-23T09:02:13.288Z,6.32
2022-10-23T09:04:40.376Z,4.40
2022-10-23T09:07:19.770Z,5.72
2022-10-23T09:10:01.265Z,6.00
2022-10-23T09:12:28.872Z,5.93
2022-10-23T09:15:10.397Z,4.00
2022-10-23T09:17:39.069Z,7.55
2022-10-23T09:20:12.374Z,7.97
2022-10-23T09:22:38.769Z,6.05
2022-10-23T09:25:08.985Z,8.05
2022-10-23T09:27:35.325Z,5.57
2022-10-23T09:30:01.666Z,6.63
2022-10-23T09:32:35.584Z,6.07
2022-10-23T09:35:01.872Z,3.85
2022-10-23T09:37:29.646Z,9.05
2022-10-23T09:40:16.363Z,8.45
2022-10-23T09:42:53.689Z,9.35
2022-10-23T09:45:41.649Z,8.43
2022-10-23T09:48:12.114Z,8.98
2022-10-23T09:50:42.441Z,4.05
2022-10-23T09:53:15.268Z,8.20
2022-10-23T09:55:41.592Z,10.30
2022-10-23T09:58:19.438Z,4.20
2022-10-23T10:00:46.975Z,10.13
2022-10-23T10:03:21.291Z,6.00
2022-10-23T10:06:00.562Z,6.40
2022-10-23T10:08:33.897Z,6.28
2022-10-23T10:11:01.661Z,8.85
2022-10-23T10:13:33.973Z,4.88
2022-10-23T10:16:03.309Z,4.32
2022-10-23T10:18:39.852Z,6.88
2022-10-23T10:21:14.581Z,3.95
2022-10-23T10:23:47.188Z,7.55
2022-10-23T10:26:32.247Z,3.80
2022-10-23T10:28:58.746Z,4.70
2022-10-23T10:31:36.734Z,6.20
2022-10-23T10:34:26.310Z,5.85
2022-10-23T10:36:54.409Z,6.70
2022-10-23T10:39:24.963Z,5.57
2022-10-23T10:42:00.210Z,7.75
2022-10-23T10:44:35.583Z,7.20
2022-10-23T10:47:21.371Z,4.43
2022-10-23T10:50:01.960Z,7.03
2022-10-23T10:52:39.076Z,5.68
2022-10-23T10:55:14.169Z,8.13
2022-10-23T10:57:53.061Z,6.47
2022-10-23T11:00:22.305Z,5.50
2022-10-23T11:02:51.451Z,5.88
2022-10-23T11:05:22.377Z,9.15
2022-10-23T11:07:56.847Z,6.68
2022-10-23T11:10:23.348Z,5.13
2022-10-23T11:12:50.544Z,5.47
2022-10-23T11:15:19.682Z,5.43
2022-10-23T11:17:48.353Z,9.05
2022-10-23T11:20:38.769Z,6.25
2022-10-23T11:23:24.602Z,5.82
2022-10-23T11:25:50.962Z,8.27
2022-10-23T11:28:23.611Z,8.80
2022-10-23T11:30:59.172Z,4.97
2022-10-23T11:33:51.712Z,7.70
2022-10-23T11:36:37.902Z,6.82
2022-10-23T11:39:15.654Z,6.25
2022-10-23T11:41:48.692Z,6.18
2022-10-23T11:44:38.053Z,9.70
2022-10-23T11:47:05.793Z,5.78
2022-10-23T11:49:32.325Z,3.95
2022-10-23T11:52:05.620Z,4.45
2022-10-23T11:54:32.141Z,4.68
2022-10-23T11:57:10.391Z,6.50
2022-10-23T11:59:57.485Z,4.30
2022-10-23T12:02:31.773Z,4.88
2022-10-23T12:05:04.527Z,4.85
2022-10-23T12:07:32.737Z,6.70
2022-10-23T12:10:00.933Z,5.38
2022-10-23T12:12:34.985Z,5.75
2022-10-23T12:17:33.485Z,4.68
2022-10-23T12:20:02.785Z,5.75
2022-10-23T12:22:36.290Z,7.45
2022-10-23T12:25:11.535Z,5.30
2022-10-23T12:27:40.970Z,11.20
2022-10-23T12:30:22.852Z,8.07
2022-10-23T12:32:49.093Z,3.67
2022-10-23T12:35:22.934Z,5.13
2022-10-23T12:37:58.476Z,7.40
2022-10-23T12:40:30.111Z,4.85
2022-10-23T12:42:58.466Z,4.55
2022-10-23T12:45:24.713Z,5.85
2022-10-23T12:47:51.739Z,3.97
2022-10-23T12:50:22.848Z,3.28
2022-10-23T12:52:56.468Z,4.20
2022-10-23T12:55:23.793Z,7.22
2022-10-23T12:57:50.841Z,4.97
2022-10-23T13:00:18.981Z,5.35
2022-10-23T13:02:45.477Z,4.55
2022-10-23T13:05:14.596Z,5.35
2022-10-23T13:07:44.046Z,5.40
2022-10-23T13:10:17.355Z,3.53
2022-10-23T13:13:05.666Z,5.30
2022-10-23T13:15:42.686Z,5.03
2022-10-23T13:18:09.781Z,4.68
2022-10-23T13:20:38.067Z,4.72
2022-10-23T13:23:12.467Z,4.85
2022-10-23T13:25:39.442Z,5.85
2022-10-23T13:28:08.838Z,3.00
2022-10-23T13:30:39.832Z,6.05
2022-10-23T13:33:15.517Z,4.63
2022-10-23T13:35:41.967Z,5.90
2022-10-23T13:38:08.747Z,2.90
2022-10-23T13:40:35.079Z,7.35
2022-10-23T13:43:01.429Z,7.00
2022-10-23T13:45:27.751Z,3.45
2022-10-23T13:47:54.074Z,5.47
2022-10-23T13:50:20.482Z,5.75
2022-10-23T13:52:47.622Z,4.30
2022-10-23T13:55:22.832Z,2.90
2022-10-23T13:57:49.253Z,8.57
2022-10-23T14:00:16.314Z,5.78
2022-10-23T14:02:42.761Z,6.43
2022-10-23T14:05:09.717Z,5.65
2022-10-23T14:07:36.244Z,5.93
2022-10-23T14:10:02.571Z,7.38
2022-10-23T14:12:28.869Z,7.60
2022-10-23T14:14:55.137Z,7.05
2022-10-23T14:17:21.736Z,5.20
2022-10-23T14:19:48.076Z,4.93
2022-10-23T14:22:14.349Z,6.25
2022-10-23T14:24:40.627Z,6.20
2022-10-23T14:27:06.901Z,6.63
2022-10-23T14:29:33.182Z,4.47
2022-10-23T14:31:59.462Z,6.70
2022-10-23T14:34:25.756Z,4.90
2022-10-23T14:37:07.384Z,6.05
2022-10-23T14:39:34.193Z,7.35
2022-10-23T14:42:00.445Z,7.90
2022-10-23T14:44:26.847Z,4.93
2022-10-23T14:46:53.156Z,5.38
2022-10-23T14:49:19.477Z,8.55
2022-10-23T14:51:45.757Z,19.48
2022-10-23T14:54:12.030Z,14.90
2022-10-23T14:56:40.445Z,12.80
2022-10-23T14:59:07.861Z,7.45
2022-10-23T15:01:36.211Z,7.20
2022-10-23T15:04:02.987Z,4.80
2022-10-23T15:06:29.270Z,5.90
2022-10-23T15:08:55.890Z,6.55
2022-10-23T15:11:22.906Z,5.45
2022-10-23T15:13:49.258Z,9.45
2022-10-23T15:16:15.778Z,9.70
2022-10-23T15:18:42.070Z,5.88
2022-10-23T15:21:08.934Z,8.43
2022-10-23T15:23:39.140Z,7.95
2022-10-23T15:26:07.082Z,7.03
2022-10-23T15:28:33.737Z,7.43
2022-10-23T15:31:00.339Z,4.85
2022-10-23T15:33:26.965Z,6.68
2022-10-23T15:35:53.622Z,11.27
2022-10-23T15:38:20.002Z,8.13
2022-10-23T15:40:46.289Z,8.90
2022-10-23T15:43:13.509Z,6.15
2022-10-23T15:45:40.401Z,8.05
2022-10-23T15:48:07.197Z,7.82
2022-10-23T15:50:33.556Z,8.65
2022-10-23T15:52:59.851Z,13.43
2022-10-23T15:55:26.186Z,9.40
2022-10-23T15:57:52.526Z,7.72
2022-10-23T16:00:20.560Z,9.27
2022-10-23T16:02:47.296Z,6.68
2022-10-23T16:05:14.072Z,8.52
2022-10-23T16:07:40.346Z,9.90
2022-10-23T16:10:06.770Z,9.23
2022-10-23T16:12:33.062Z,8.90
2022-10-23T16:14:59.325Z,6.15
2022-10-23T16:17:25.621Z,7.65
2022-10-23T16:19:51.890Z,5.57
2022-10-23T16:22:18.260Z,8.23
2022-10-23T16:24:44.545Z,10.50
2022-10-23T16:27:10.890Z,10.80
2022-10-23T16:29:37.193Z,15.10
2022-10-23T16:32:03.502Z,8.05
2022-10-23T16:34:29.777Z,7.35
2022-10-23T16:36:56.065Z,15.05
2022-10-23T16:39:46.382Z,15.38
2022-10-23T16:42:31.797Z,14.13
2022-10-23T16:45:24.276Z,16.35
2022-10-23T16:47:50.707Z,10.50
2022-10-23T16:50:17.280Z,8.82
2022-10-23T16:52:43.970Z,8.45
2022-10-23T16:55:10.392Z,11.63
2022-10-23T16:57:37.094Z,5.88
2022-10-23T17:00:04.006Z,12.90
2022-10-23T17:02:30.432Z,15.95
2022-10-23T17:04:56.896Z,12.45
2022-10-23T17:07:24.269Z,10.23
2022-10-23T17:09:50.809Z,14.98
2022-10-23T17:12:17.320Z,6.97
2022-10-23T17:14:43.610Z,6.78
2022-10-23T17:17:09.915Z,9.50
2022-10-23T17:19:45.102Z,8.35
2022-10-23T17:22:13.122Z,8.38
2022-10-23T17:24:40.250Z,13.25
2022-10-23T17:27:06.539Z,8.65
2022-10-23T17:29:33.044Z,10.38
2022-10-23T17:31:59.362Z,9.32
2022-10-23T17:34:25.933Z,11.88
2022-10-23T17:36:53.702Z,9.57
2022-10-23T17:39:22.230Z,8.65
2022-10-23T17:41:48.841Z,12.55
2022-10-23T17:44:15.508Z,10.02
2022-10-23T17:46:41.885Z,13.02
2022-10-23T17:49:08.175Z,11.55
2022-10-23T17:51:34.986Z,12.63
2022-10-23T17:54:06.662Z,10.40
2022-10-23T17:56:33.753Z,7.95
2022-10-23T17:59:01.109Z,6.05
2022-10-23T18:01:28.160Z,7.25
2022-10-23T18:03:55.145Z,9.98
2022-10-23T18:06:24.596Z,8.60
2022-10-23T18:08:54.406Z,8.77
2022-10-23T18:11:25.102Z,8.32
2022-10-23T18:13:51.918Z,14.50
2022-10-23T18:16:18.344Z,7.80
2022-10-23T18:18:47.937Z,9.85
2022-10-23T18:21:15.489Z,12.18
2022-10-23T18:23:42.084Z,7.82
2022-10-23T18:26:15.882Z,7.43
2022-10-23T18:28:42.715Z,7.20
2022-10-23T18:31:10.207Z,9.45
2022-10-23T18:33:36.493Z,11.00
2022-10-23T18:36:02.903Z,9.52
2022-10-23T18:38:30.131Z,11.52
2022-10-23T18:40:56.419Z,11.50
2022-10-23T18:43:38.789Z,11.68
2022-10-23T18:46:10.333Z,12.45
2022-10-23T18:48:36.643Z,13.75
2022-10-23T18:51:02.968Z,13.52
2022-10-23T18:53:29.280Z,11.38
2022-10-23T18:55:55.958Z,12.88
2022-10-23T18:58:22.260Z,15.40
2022-10-23T19:00:48.542Z,13.57
2022-10-23T19:03:15.172Z,18.80
2022-10-23T19:05:44.809Z,17.45
2022-10-23T19:08:11.920Z,13.75
2022-10-23T19:10:39.201Z,16.13
2022-10-23T19:13:05.628Z,14.40
2022-10-23T19:15:33.230Z,15.68
2022-10-23T19:17:59.704Z,13.10
2022-10-23T19:22:59.341Z,16.02
2022-10-23T19:25:31.284Z,16.08
2022-10-23T19:27:58.094Z,21.48
2022-10-23T19:30:24.879Z,21.15
2022-10-23T19:32:51.165Z,19.42
2022-10-23T19:35:18.715Z,21.67
2022-10-23T19:37:45.552Z,18.88
2022-10-23T19:40:13.110Z,22.45
2022-10-23T19:42:40.109Z,26.15
2022-10-23T19:45:07.480Z,23.42
2022-10-23T19:47:34.203Z,25.08
2022-10-23T19:50:00.509Z,24.98
2022-10-23T19:52:26.945Z,21.92
2022-10-23T19:54:53.258Z,24.40
2022-10-23T19:57:22.461Z,33.80
2022-10-23T19:59:50.028Z,24.25
2022-10-23T20:02:17.053Z,27.35
2022-10-23T20:04:43.450Z,32.00
2022-10-23T20:07:09.788Z,40.22
2022-10-23T20:09:36.112Z,33.47
2022-10-23T20:12:03.533Z,32.78
2022-10-23T20:14:29.837Z,29.50
2022-10-23T20:16:56.271Z,23.02
2022-10-23T20:19:22.641Z,26.83
2022-10-23T20:21:49.378Z,28.30
2022-10-23T20:24:16.403Z,26.80
2022-10-23T20:26:43.438Z,28.23
2022-10-23T20:29:10.153Z,34.63
2022-10-23T20:31:36.510Z,42.15
2022-10-23T20:34:03.265Z,34.00
2022-10-23T20:36:34.232Z,58.20
2022-10-23T20:39:05.187Z,37.85
2022-10-23T20:41:33.160Z,39.05
2022-10-23T20:43:59.829Z,37.22
2022-10-23T20:46:26.548Z,37.78
2022-10-23T20:48:53.006Z,30.40
2022-10-23T20:51:20.265Z,31.48
2022-10-23T20:53:47.643Z,43.60
2022-10-23T20:56:18.195Z,36.97
2022-10-23T20:58:44.520Z,34.53
2022-10-23T21:01:12.387Z,39.10
2022-10-23T21:03:38.812Z,42.42
2022-10-23T21:06:06.069Z,53.53
2022-10-23T21:08:32.434Z,36.47
2022-10-23T21:10:59.270Z,33.10
2022-10-23T21:13:25.684Z,43.65
2022-10-23T21:15:52.055Z,35.65
2022-10-23T21:18:26.444Z,30.08
2022-10-23T21:21:00.171Z,31.25
2022-10-23T21:23:28.373Z,29.15
2022-10-23T21:25:54.644Z,31.50
2022-10-23T21:28:20.905Z,34.75
2022-10-23T21:30:47.219Z,35.22
2022-10-23T21:33:14.216Z,43.88
2022-10-23T21:35:47.481Z,49.25
2022-10-23T21:38:24.532Z,54.72
2022-10-23T21:40:51.165Z,50.50
2022-10-23T21:43:17.742Z,40.13
2022-10-23T21:45:44.049Z,36.40
2022-10-23T21:48:10.406Z,36.25
2022-10-23T21:50:36.716Z,37.08
2022-10-23T21:53:03.039Z,29.00
2022-10-23T21:55:29.817Z,31.80
2022-10-23T21:57:56.333Z,37.22
2022-10-23T22:00:22.657Z,34.30
2022-10-23T22:02:49.129Z,27.85
2022-10-23T22:05:15.594Z,31.42
2022-10-23T22:07:45.947Z,32.92
2022-10-23T22:10:12.514Z,29.67
2022-10-23T22:12:38.790Z,34.25
2022-10-23T22:15:05.318Z,29.98
2022-10-23T22:17:31.613Z,33.95
2022-10-23T22:19:57.883Z,36.40
2022-10-23T22:22:24.302Z,35.80
2022-10-23T22:24:50.600Z,42.47
2022-10-23T22:27:16.873Z,31.13
2022-10-23T22:29:43.172Z,44.47
2022-10-23T22:32:09.495Z,31.50
2022-10-23T22:37:22.066Z,47.40
2022-10-23T22:39:52.045Z,57.10
2022-10-23T22:42:18.901Z,68.30
2022-10-23T22:44:45.279Z,35.83
2022-10-23T22:47:11.638Z,47.53
2022-10-23T22:49:38.364Z,60.42
2022-10-23T22:52:04.713Z,44.40
2022-10-23T22:54:31.322Z,39.85
2022-10-23T22:56:57.734Z,36.17
2022-10-23T22:59:24.067Z,32.67
2022-10-23T23:01:50.894Z,32.15
2022-10-23T23:07:04.880Z,29.67
2022-10-23T23:09:31.169Z,30.85
2022-10-23T23:11:57.448Z,29.08
2022-10-23T23:14:24.621Z,29.38
2022-10-23T23:16:51.936Z,36.80
2022-10-23T23:19:18.233Z,57.83
2022-10-23T23:21:44.542Z,78.25
2022-10-23T23:24:11.324Z,106.75
2022-10-23T23:26:37.635Z,61.38
2022-10-23T23:29:03.928Z,102.90
2022-10-23T23:31:30.218Z,63.17
2022-10-23T23:33:56.541Z,84.60
2022-10-23T23:36:24.054Z,114.55
2022-10-23T23:38:50.670Z,134.20
2022-10-23T23:41:17.950Z,25.85
2022-10-23T23:43:44.331Z,27.23
2022-10-23T23:46:11.148Z,33.60
2022-10-23T23:48:37.973Z,30.42
2022-10-23T23:51:04.585Z,32.33
2022-10-23T23:53:30.936Z,33.30
2022-10-23T23:55:58.020Z,37.47
2022-10-23T23:58:24.397Z,34.60
